sensor_id;sensor_type;location;lat;lon;timestamp;P1;durP1;ratioP1;P2;durP2;ratioP2
27666;SDS011;15074;50.940;5.282;2023-07-31T00:00:34;9.82;;;2.92;;
27666;SDS011;15074;50.940;5.282;2023-07-31T00:03:00;5.05;;;2.78;;
27666;SDS011;15074;50.940;5.282;2023-07-31T00:05:25;11.85;;;3.63;;
27666;SDS011;15074;50.940;5.282;2023-07-31T00:07:51;8.00;;;3.25;;
27666;SDS011;15074;50.940;5.282;2023-07-31T00:10:18;6.78;;;3.30;;
27666;SDS011;15074;50.940;5.282;2023-07-31T00:12:44;6.43;;;3.42;;
27666;SDS011;15074;50.940;5.282;2023-07-31T00:15:10;5.93;;;3.70;;
27666;SDS011;15074;50.940;5.282;2023-07-31T00:17:36;12.25;;;4.13;;
27666;SDS011;15074;50.940;5.282;2023-07-31T00:20:02;9.32;;;4.35;;
27666;SDS011;15074;50.940;5.282;2023-07-31T00:22:28;8.48;;;4.07;;
27666;SDS011;15074;50.940;5.282;2023-07-31T00:24:55;12.52;;;3.55;;
27666;SDS011;15074;50.940;5.282;2023-07-31T00:27:21;9.38;;;3.33;;
27666;SDS011;15074;50.940;5.282;2023-07-31T00:29:47;7.90;;;4.15;;
27666;SDS011;15074;50.940;5.282;2023-07-31T00:32:12;7.93;;;3.63;;
27666;SDS011;15074;50.940;5.282;2023-07-31T00:34:38;8.02;;;3.47;;
27666;SDS011;15074;50.940;5.282;2023-07-31T00:37:03;6.78;;;3.63;;
27666;SDS011;15074;50.940;5.282;2023-07-31T00:39:30;7.43;;;3.38;;
27666;SDS011;15074;50.940;5.282;2023-07-31T00:41:56;6.07;;;3.95;;
27666;SDS011;15074;50.940;5.282;2023-07-31T00:44:22;8.60;;;4.13;;
27666;SDS011;15074;50.940;5.282;2023-07-31T00:46:47;8.75;;;3.72;;
27666;SDS011;15074;50.940;5.282;2023-07-31T00:49:14;9.23;;;3.80;;
27666;SDS011;15074;50.940;5.282;2023-07-31T00:51:40;7.85;;;3.60;;
27666;SDS011;15074;50.940;5.282;2023-07-31T00:54:06;8.57;;;3.38;;
27666;SDS011;15074;50.940;5.282;2023-07-31T00:56:32;10.35;;;3.42;;
27666;SDS011;15074;50.940;5.282;2023-07-31T00:58:58;8.85;;;3.63;;
27666;SDS011;15074;50.940;5.282;2023-07-31T01:01:24;7.65;;;3.72;;
27666;SDS011;15074;50.940;5.282;2023-07-31T01:03:50;8.10;;;3.88;;
27666;SDS011;15074;50.940;5.282;2023-07-31T01:09:02;11.57;;;4.32;;
27666;SDS011;15074;50.940;5.282;2023-07-31T01:11:43;5.95;;;3.30;;
27666;SDS011;15074;50.940;5.282;2023-07-31T01:14:16;6.03;;;3.60;;
27666;SDS011;15074;50.940;5.282;2023-07-31T01:16:41;7.10;;;3.60;;
27666;SDS011;15074;50.940;5.282;2023-07-31T01:19:07;6.38;;;3.55;;
27666;SDS011;15074;50.940;5.282;2023-07-31T01:26:45;6.28;;;3.85;;
27666;SDS011;15074;50.940;5.282;2023-07-31T01:32:12;6.18;;;3.47;;
27666;SDS011;15074;50.940;5.282;2023-07-31T01:34:38;7.43;;;3.85;;
27666;SDS011;15074;50.940;5.282;2023-07-31T01:37:07;7.15;;;3.40;;
27666;SDS011;15074;50.940;5.282;2023-07-31T01:39:33;5.30;;;3.00;;
27666;SDS011;15074;50.940;5.282;2023-07-31T01:42:00;8.85;;;3.60;;
27666;SDS011;15074;50.940;5.282;2023-07-31T01:44:25;9.32;;;3.92;;
27666;SDS011;15074;50.940;5.282;2023-07-31T01:46:51;9.07;;;3.67;;
27666;SDS011;15074;50.940;5.282;2023-07-31T01:49:17;6.05;;;3.33;;
27666;SDS011;15074;50.940;5.282;2023-07-31T01:51:42;6.60;;;4.07;;
27666;SDS011;15074;50.940;5.282;2023-07-31T01:54:08;6.65;;;3.50;;
27666;SDS011;15074;50.940;5.282;2023-07-31T01:56:34;8.13;;;3.88;;
27666;SDS011;15074;50.940;5.282;2023-07-31T01:58:59;9.02;;;4.10;;
27666;SDS011;15074;50.940;5.282;2023-07-31T02:01:25;6.13;;;3.40;;
27666;SDS011;15074;50.940;5.282;2023-07-31T02:03:50;7.18;;;3.90;;
27666;SDS011;15074;50.940;5.282;2023-07-31T02:06:16;11.45;;;3.85;;
27666;SDS011;15074;50.940;5.282;2023-07-31T02:08:42;8.27;;;3.78;;
27666;SDS011;15074;50.940;5.282;2023-07-31T02:11:07;7.72;;;3.53;;
27666;SDS011;15074;50.940;5.282;2023-07-31T02:13:33;7.05;;;4.38;;
27666;SDS011;15074;50.940;5.282;2023-07-31T02:15:58;7.28;;;3.75;;
27666;SDS011;15074;50.940;5.282;2023-07-31T02:18:24;7.63;;;3.33;;
27666;SDS011;15074;50.940;5.282;2023-07-31T02:20:50;10.98;;;3.92;;
27666;SDS011;15074;50.940;5.282;2023-07-31T02:23:16;6.32;;;3.97;;
27666;SDS011;15074;50.940;5.282;2023-07-31T02:25:43;6.32;;;3.55;;
27666;SDS011;15074;50.940;5.282;2023-07-31T02:28:09;8.27;;;4.57;;
27666;SDS011;15074;50.940;5.282;2023-07-31T02:30:35;7.60;;;3.53;;
27666;SDS011;15074;50.940;5.282;2023-07-31T02:33:00;9.45;;;3.58;;
27666;SDS011;15074;50.940;5.282;2023-07-31T02:35:26;14.98;;;4.72;;
27666;SDS011;15074;50.940;5.282;2023-07-31T02:37:52;6.63;;;4.63;;
27666;SDS011;15074;50.940;5.282;2023-07-31T02:40:18;7.80;;;3.50;;
27666;SDS011;15074;50.940;5.282;2023-07-31T02:42:43;6.13;;;4.07;;
27666;SDS011;15074;50.940;5.282;2023-07-31T02:45:09;11.38;;;4.38;;
27666;SDS011;15074;50.940;5.282;2023-07-31T02:47:35;5.63;;;3.50;;
27666;SDS011;15074;50.940;5.282;2023-07-31T02:50:01;4.68;;;4.13;;
27666;SDS011;15074;50.940;5.282;2023-07-31T02:52:30;6.35;;;4.20;;
27666;SDS011;15074;50.940;5.282;2023-07-31T02:54:56;7.65;;;3.95;;
27666;SDS011;15074;50.940;5.282;2023-07-31T02:57:22;5.90;;;4.15;;
27666;SDS011;15074;50.940;5.282;2023-07-31T02:59:48;5.68;;;4.00;;
27666;SDS011;15074;50.940;5.282;2023-07-31T03:02:13;8.48;;;4.15;;
27666;SDS011;15074;50.940;5.282;2023-07-31T03:04:39;8.65;;;4.93;;
27666;SDS011;15074;50.940;5.282;2023-07-31T03:07:05;5.10;;;3.80;;
27666;SDS011;15074;50.940;5.282;2023-07-31T03:09:31;6.97;;;4.07;;
27666;SDS011;15074;50.940;5.282;2023-07-31T03:11:57;6.05;;;3.95;;
27666;SDS011;15074;50.940;5.282;2023-07-31T03:14:22;5.28;;;4.35;;
27666;SDS011;15074;50.940;5.282;2023-07-31T03:16:48;7.72;;;4.45;;
27666;SDS011;15074;50.940;5.282;2023-07-31T03:19:14;5.55;;;3.97;;
27666;SDS011;15074;50.940;5.282;2023-07-31T03:21:40;6.05;;;3.92;;
27666;SDS011;15074;50.940;5.282;2023-07-31T03:24:06;6.65;;;3.72;;
27666;SDS011;15074;50.940;5.282;2023-07-31T03:26:32;5.25;;;4.07;;
27666;SDS011;15074;50.940;5.282;2023-07-31T03:28:57;6.60;;;4.32;;
27666;SDS011;15074;50.940;5.282;2023-07-31T03:31:23;6.10;;;3.75;;
27666;SDS011;15074;50.940;5.282;2023-07-31T03:33:49;8.07;;;4.65;;
27666;SDS011;15074;50.940;5.282;2023-07-31T03:36:14;8.75;;;3.88;;
27666;SDS011;15074;50.940;5.282;2023-07-31T03:38:40;6.35;;;4.00;;
27666;SDS011;15074;50.940;5.282;2023-07-31T03:41:06;6.13;;;3.78;;
27666;SDS011;15074;50.940;5.282;2023-07-31T03:43:32;7.43;;;3.65;;
27666;SDS011;15074;50.940;5.282;2023-07-31T03:46:00;8.82;;;4.55;;
27666;SDS011;15074;50.940;5.282;2023-07-31T03:48:26;6.50;;;3.55;;
27666;SDS011;15074;50.940;5.282;2023-07-31T03:50:52;8.88;;;4.07;;
27666;SDS011;15074;50.940;5.282;2023-07-31T03:53:17;4.93;;;3.72;;
27666;SDS011;15074;50.940;5.282;2023-07-31T03:55:43;4.78;;;3.47;;
27666;SDS011;15074;50.940;5.282;2023-07-31T03:58:09;6.03;;;3.60;;
27666;SDS011;15074;50.940;5.282;2023-07-31T04:00:34;5.60;;;3.38;;
27666;SDS011;15074;50.940;5.282;2023-07-31T04:03:00;5.22;;;3.75;;
27666;SDS011;15074;50.940;5.282;2023-07-31T04:05:26;5.40;;;3.47;;
27666;SDS011;15074;50.940;5.282;2023-07-31T04:07:51;5.32;;;3.60;;
27666;SDS011;15074;50.940;5.282;2023-07-31T04:10:17;6.85;;;3.60;;
27666;SDS011;15074;50.940;5.282;2023-07-31T04:12:42;5.00;;;3.30;;
27666;SDS011;15074;50.940;5.282;2023-07-31T04:15:08;4.57;;;3.63;;
27666;SDS011;15074;50.940;5.282;2023-07-31T04:17:34;4.57;;;3.45;;
27666;SDS011;15074;50.940;5.282;2023-07-31T04:20:01;7.95;;;3.78;;
27666;SDS011;15074;50.940;5.282;2023-07-31T04:22:27;5.60;;;3.55;;
27666;SDS011;15074;50.940;5.282;2023-07-31T04:24:53;5.90;;;3.17;;
27666;SDS011;15074;50.940;5.282;2023-07-31T04:27:18;3.30;;;2.75;;
27666;SDS011;15074;50.940;5.282;2023-07-31T04:29:44;5.40;;;3.03;;
27666;SDS011;15074;50.940;5.282;2023-07-31T04:32:11;4.13;;;2.88;;
27666;SDS011;15074;50.940;5.282;2023-07-31T04:34:37;5.28;;;2.80;;
27666;SDS011;15074;50.940;5.282;2023-07-31T04:37:03;5.80;;;3.10;;
27666;SDS011;15074;50.940;5.282;2023-07-31T04:39:28;6.60;;;3.80;;
27666;SDS011;15074;50.940;5.282;2023-07-31T04:41:54;4.90;;;3.10;;
27666;SDS011;15074;50.940;5.282;2023-07-31T04:44:20;5.47;;;3.28;;
27666;SDS011;15074;50.940;5.282;2023-07-31T04:46:45;4.57;;;3.38;;
27666;SDS011;15074;50.940;5.282;2023-07-31T04:49:11;3.95;;;3.25;;
27666;SDS011;15074;50.940;5.282;2023-07-31T04:51:37;8.07;;;4.05;;
27666;SDS011;15074;50.940;5.282;2023-07-31T04:54:02;4.50;;;3.45;;
27666;SDS011;15074;50.940;5.282;2023-07-31T04:56:28;8.05;;;3.60;;
27666;SDS011;15074;50.940;5.282;2023-07-31T04:58:54;4.78;;;3.63;;
27666;SDS011;15074;50.940;5.282;2023-07-31T05:01:20;5.47;;;4.35;;
27666;SDS011;15074;50.940;5.282;2023-07-31T05:03:45;6.25;;;4.13;;
27666;SDS011;15074;50.940;5.282;2023-07-31T05:06:11;5.72;;;4.13;;
27666;SDS011;15074;50.940;5.282;2023-07-31T05:08:38;5.60;;;4.07;;
27666;SDS011;15074;50.940;5.282;2023-07-31T05:11:04;6.72;;;4.40;;
27666;SDS011;15074;50.940;5.282;2023-07-31T05:13:29;6.00;;;3.90;;
27666;SDS011;15074;50.940;5.282;2023-07-31T05:15:55;8.23;;;4.63;;
27666;SDS011;15074;50.940;5.282;2023-07-31T05:18:21;9.50;;;4.53;;
27666;SDS011;15074;50.940;5.282;2023-07-31T05:20:46;9.18;;;4.47;;
27666;SDS011;15074;50.940;5.282;2023-07-31T05:23:12;6.15;;;3.58;;
27666;SDS011;15074;50.940;5.282;2023-07-31T05:25:38;6.45;;;4.60;;
27666;SDS011;15074;50.940;5.282;2023-07-31T05:28:03;6.72;;;4.13;;
27666;SDS011;15074;50.940;5.282;2023-07-31T05:30:29;5.40;;;3.72;;
27666;SDS011;15074;50.940;5.282;2023-07-31T05:32:56;9.52;;;3.85;;
27666;SDS011;15074;50.940;5.282;2023-07-31T05:35:21;6.30;;;3.75;;
27666;SDS011;15074;50.940;5.282;2023-07-31T05:37:47;5.95;;;4.10;;
27666;SDS011;15074;50.940;5.282;2023-07-31T05:40:13;5.32;;;3.65;;
27666;SDS011;15074;50.940;5.282;2023-07-31T05:42:39;6.47;;;4.00;;
27666;SDS011;15074;50.940;5.282;2023-07-31T05:45:06;5.32;;;3.30;;
27666;SDS011;15074;50.940;5.282;2023-07-31T05:47:32;5.00;;;3.60;;
27666;SDS011;15074;50.940;5.282;2023-07-31T05:49:58;7.03;;;3.90;;
27666;SDS011;15074;50.940;5.282;2023-07-31T05:52:23;6.45;;;3.90;;
27666;SDS011;15074;50.940;5.282;2023-07-31T05:54:49;5.22;;;3.88;;
27666;SDS011;15074;50.940;5.282;2023-07-31T05:57:15;5.25;;;4.03;;
27666;SDS011;15074;50.940;5.282;2023-07-31T05:59:41;7.28;;;3.20;;
27666;SDS011;15074;50.940;5.282;2023-07-31T06:02:07;6.28;;;3.45;;
27666;SDS011;15074;50.940;5.282;2023-07-31T06:04:33;5.65;;;3.65;;
27666;SDS011;15074;50.940;5.282;2023-07-31T06:06:58;6.75;;;4.15;;
27666;SDS011;15074;50.940;5.282;2023-07-31T06:09:25;6.38;;;3.75;;
27666;SDS011;15074;50.940;5.282;2023-07-31T06:11:51;5.65;;;3.55;;
27666;SDS011;15074;50.940;5.282;2023-07-31T06:14:17;8.40;;;3.80;;
27666;SDS011;15074;50.940;5.282;2023-07-31T06:16:43;7.38;;;3.65;;
27666;SDS011;15074;50.940;5.282;2023-07-31T06:19:09;4.95;;;3.17;;
27666;SDS011;15074;50.940;5.282;2023-07-31T06:21:35;5.68;;;4.05;;
27666;SDS011;15074;50.940;5.282;2023-07-31T06:24:05;5.53;;;3.42;;
27666;SDS011;15074;50.940;5.282;2023-07-31T06:26:31;5.93;;;3.28;;
27666;SDS011;15074;50.940;5.282;2023-07-31T06:28:56;4.75;;;3.55;;
27666;SDS011;15074;50.940;5.282;2023-07-31T06:31:22;7.90;;;3.95;;
27666;SDS011;15074;50.940;5.282;2023-07-31T06:33:51;4.63;;;3.55;;
27666;SDS011;15074;50.940;5.282;2023-07-31T06:36:17;5.63;;;4.13;;
27666;SDS011;15074;50.940;5.282;2023-07-31T06:38:43;6.00;;;3.38;;
27666;SDS011;15074;50.940;5.282;2023-07-31T06:41:09;5.65;;;3.63;;
27666;SDS011;15074;50.940;5.282;2023-07-31T06:43:35;7.15;;;4.28;;
27666;SDS011;15074;50.940;5.282;2023-07-31T06:46:05;8.80;;;3.72;;
27666;SDS011;15074;50.940;5.282;2023-07-31T06:48:34;6.55;;;4.30;;
27666;SDS011;15074;50.940;5.282;2023-07-31T06:51:02;8.43;;;3.38;;
27666;SDS011;15074;50.940;5.282;2023-07-31T06:53:28;7.80;;;3.95;;
27666;SDS011;15074;50.940;5.282;2023-07-31T06:55:54;7.47;;;3.97;;
27666;SDS011;15074;50.940;5.282;2023-07-31T06:58:21;7.00;;;3.33;;
27666;SDS011;15074;50.940;5.282;2023-07-31T07:00:49;7.13;;;3.60;;
27666;SDS011;15074;50.940;5.282;2023-07-31T07:03:17;6.63;;;3.30;;
27666;SDS011;15074;50.940;5.282;2023-07-31T07:08:09;7.22;;;3.83;;
27666;SDS011;15074;50.940;5.282;2023-07-31T07:10:35;8.32;;;4.55;;
27666;SDS011;15074;50.940;5.282;2023-07-31T07:13:00;7.65;;;3.47;;
27666;SDS011;15074;50.940;5.282;2023-07-31T07:15:26;6.38;;;3.45;;
27666;SDS011;15074;50.940;5.282;2023-07-31T07:17:51;7.60;;;3.10;;
27666;SDS011;15074;50.940;5.282;2023-07-31T07:20:17;4.90;;;3.13;;
27666;SDS011;15074;50.940;5.282;2023-07-31T07:22:45;6.50;;;3.40;;
27666;SDS011;15074;50.940;5.282;2023-07-31T07:25:10;5.72;;;3.03;;
27666;SDS011;15074;50.940;5.282;2023-07-31T07:27:36;5.45;;;3.35;;
27666;SDS011;15074;50.940;5.282;2023-07-31T07:30:02;6.75;;;3.00;;
27666;SDS011;15074;50.940;5.282;2023-07-31T07:32:28;5.03;;;3.50;;
27666;SDS011;15074;50.940;5.282;2023-07-31T07:34:54;7.43;;;3.08;;
27666;SDS011;15074;50.940;5.282;2023-07-31T07:37:21;7.80;;;3.15;;
27666;SDS011;15074;50.940;5.282;2023-07-31T07:39:46;6.35;;;3.35;;
27666;SDS011;15074;50.940;5.282;2023-07-31T07:42:12;4.70;;;2.92;;
27666;SDS011;15074;50.940;5.282;2023-07-31T07:44:38;5.63;;;3.67;;
27666;SDS011;15074;50.940;5.282;2023-07-31T07:47:03;4.70;;;2.65;;
27666;SDS011;15074;50.940;5.282;2023-07-31T07:49:32;4.93;;;3.10;;
27666;SDS011;15074;50.940;5.282;2023-07-31T07:52:00;5.05;;;3.35;;
27666;SDS011;15074;50.940;5.282;2023-07-31T07:54:26;3.88;;;3.28;;
27666;SDS011;15074;50.940;5.282;2023-07-31T07:56:52;5.85;;;3.13;;
27666;SDS011;15074;50.940;5.282;2023-07-31T07:59:17;8.27;;;3.00;;
27666;SDS011;15074;50.940;5.282;2023-07-31T08:01:43;4.93;;;2.92;;
27666;SDS011;15074;50.940;5.282;2023-07-31T08:04:09;5.43;;;3.15;;
27666;SDS011;15074;50.940;5.282;2023-07-31T08:06:34;5.75;;;2.75;;
27666;SDS011;15074;50.940;5.282;2023-07-31T08:09:00;4.82;;;2.88;;
27666;SDS011;15074;50.940;5.282;2023-07-31T08:11:31;4.13;;;2.88;;
27666;SDS011;15074;50.940;5.282;2023-07-31T08:13:59;3.95;;;2.30;;
27666;SDS011;15074;50.940;5.282;2023-07-31T08:16:25;5.55;;;3.30;;
27666;SDS011;15074;50.940;5.282;2023-07-31T08:18:51;5.50;;;2.83;;
27666;SDS011;15074;50.940;5.282;2023-07-31T08:21:16;7.28;;;2.65;;
27666;SDS011;15074;50.940;5.282;2023-07-31T08:23:42;6.93;;;3.33;;
27666;SDS011;15074;50.940;5.282;2023-07-31T08:26:08;4.00;;;2.28;;
27666;SDS011;15074;50.940;5.282;2023-07-31T08:28:39;4.05;;;2.65;;
27666;SDS011;15074;50.940;5.282;2023-07-31T08:31:05;4.57;;;2.13;;
27666;SDS011;15074;50.940;5.282;2023-07-31T08:33:30;5.43;;;2.83;;
27666;SDS011;15074;50.940;5.282;2023-07-31T08:35:56;5.72;;;2.42;;
27666;SDS011;15074;50.940;5.282;2023-07-31T08:38:22;5.72;;;2.40;;
27666;SDS011;15074;50.940;5.282;2023-07-31T08:40:50;4.32;;;2.67;;
27666;SDS011;15074;50.940;5.282;2023-07-31T08:43:16;4.13;;;2.60;;
27666;SDS011;15074;50.940;5.282;2023-07-31T08:45:41;3.65;;;2.50;;
27666;SDS011;15074;50.940;5.282;2023-07-31T08:48:08;3.70;;;2.10;;
27666;SDS011;15074;50.940;5.282;2023-07-31T08:50:33;5.75;;;3.30;;
27666;SDS011;15074;50.940;5.282;2023-07-31T08:53:00;6.32;;;2.80;;
27666;SDS011;15074;50.940;5.282;2023-07-31T08:55:26;4.28;;;2.33;;
27666;SDS011;15074;50.940;5.282;2023-07-31T08:57:53;4.30;;;2.50;;
27666;SDS011;15074;50.940;5.282;2023-07-31T09:00:20;5.90;;;3.38;;
27666;SDS011;15074;50.940;5.282;2023-07-31T09:05:19;5.78;;;2.70;;
27666;SDS011;15074;50.940;5.282;2023-07-31T09:07:47;3.03;;;2.10;;
27666;SDS011;15074;50.940;5.282;2023-07-31T09:10:14;4.07;;;2.35;;
27666;SDS011;15074;50.940;5.282;2023-07-31T09:12:40;4.70;;;2.10;;
27666;SDS011;15074;50.940;5.282;2023-07-31T09:15:06;4.18;;;2.30;;
27666;SDS011;15074;50.940;5.282;2023-07-31T09:17:34;4.30;;;2.58;;
27666;SDS011;15074;50.940;5.282;2023-07-31T09:22:43;4.03;;;2.13;;
27666;SDS011;15074;50.940;5.282;2023-07-31T09:25:30;2.97;;;1.85;;
27666;SDS011;15074;50.940;5.282;2023-07-31T09:27:59;3.80;;;2.47;;
27666;SDS011;15074;50.940;5.282;2023-07-31T09:30:29;3.20;;;1.85;;
27666;SDS011;15074;50.940;5.282;2023-07-31T09:33:04;2.45;;;1.50;;
27666;SDS011;15074;50.940;5.282;2023-07-31T09:35:34;2.45;;;1.73;;
27666;SDS011;15074;50.940;5.282;2023-07-31T09:38:01;2.65;;;1.70;;
27666;SDS011;15074;50.940;5.282;2023-07-31T09:40:32;2.45;;;1.15;;
27666;SDS011;15074;50.940;5.282;2023-07-31T09:43:06;3.53;;;1.50;;
27666;SDS011;15074;50.940;5.282;2023-07-31T09:45:36;2.53;;;1.20;;
27666;SDS011;15074;50.940;5.282;2023-07-31T09:48:06;2.80;;;1.30;;
27666;SDS011;15074;50.940;5.282;2023-07-31T09:50:40;1.67;;;1.20;;
27666;SDS011;15074;50.940;5.282;2023-07-31T09:53:07;2.72;;;1.17;;
27666;SDS011;15074;50.940;5.282;2023-07-31T09:55:33;1.85;;;1.08;;
27666;SDS011;15074;50.940;5.282;2023-07-31T09:57:59;1.38;;;0.98;;
27666;SDS011;15074;50.940;5.282;2023-07-31T10:00:30;1.35;;;0.90;;
27666;SDS011;15074;50.940;5.282;2023-07-31T10:02:58;2.05;;;1.50;;
27666;SDS011;15074;50.940;5.282;2023-07-31T10:05:31;1.92;;;1.20;;
27666;SDS011;15074;50.940;5.282;2023-07-31T10:08:11;1.48;;;1.13;;
27666;SDS011;15074;50.940;5.282;2023-07-31T10:10:41;2.33;;;1.23;;
27666;SDS011;15074;50.940;5.282;2023-07-31T10:13:11;7.75;;;1.50;;
27666;SDS011;15074;50.940;5.282;2023-07-31T10:15:40;2.22;;;1.48;;
27666;SDS011;15074;50.940;5.282;2023-07-31T10:18:08;3.00;;;1.50;;
27666;SDS011;15074;50.940;5.282;2023-07-31T10:20:34;2.67;;;1.50;;
27666;SDS011;15074;50.940;5.282;2023-07-31T10:23:00;2.40;;;1.30;;
27666;SDS011;15074;50.940;5.282;2023-07-31T10:25:27;2.43;;;1.77;;
27666;SDS011;15074;50.940;5.282;2023-07-31T10:27:55;4.00;;;1.52;;
27666;SDS011;15074;50.940;5.282;2023-07-31T10:30:23;3.80;;;1.90;;
27666;SDS011;15074;50.940;5.282;2023-07-31T10:32:52;2.95;;;1.80;;
27666;SDS011;15074;50.940;5.282;2023-07-31T10:35:19;3.45;;;1.55;;
27666;SDS011;15074;50.940;5.282;2023-07-31T10:37:47;2.95;;;1.88;;
27666;SDS011;15074;50.940;5.282;2023-07-31T10:40:17;3.78;;;1.95;;
27666;SDS011;15074;50.940;5.282;2023-07-31T10:42:49;5.03;;;2.30;;
27666;SDS011;15074;50.940;5.282;2023-07-31T10:47:58;2.95;;;1.85;;
27666;SDS011;15074;50.940;5.282;2023-07-31T10:50:26;3.17;;;2.15;;
27666;SDS011;15074;50.940;5.282;2023-07-31T10:52:55;2.72;;;2.00;;
27666;SDS011;15074;50.940;5.282;2023-07-31T10:57:54;3.55;;;2.25;;
27666;SDS011;15074;50.940;5.282;2023-07-31T11:08:13;3.50;;;2.45;;
27666;SDS011;15074;50.940;5.282;2023-07-31T11:10:44;4.68;;;2.30;;
27666;SDS011;15074;50.940;5.282;2023-07-31T11:13:11;4.88;;;2.72;;
27666;SDS011;15074;50.940;5.282;2023-07-31T11:15:37;4.78;;;2.85;;
27666;SDS011;15074;50.940;5.282;2023-07-31T11:18:03;3.55;;;2.50;;
27666;SDS011;15074;50.940;5.282;2023-07-31T11:20:31;3.55;;;2.20;;
27666;SDS011;15074;50.940;5.282;2023-07-31T11:22:59;3.55;;;2.78;;
27666;SDS011;15074;50.940;5.282;2023-07-31T11:25:28;3.65;;;2.35;;
27666;SDS011;15074;50.940;5.282;2023-07-31T11:27:55;5.25;;;2.60;;
27666;SDS011;15074;50.940;5.282;2023-07-31T11:30:21;5.13;;;2.53;;
27666;SDS011;15074;50.940;5.282;2023-07-31T11:32:47;4.03;;;2.67;;
27666;SDS011;15074;50.940;5.282;2023-07-31T11:35:13;3.80;;;2.50;;
27666;SDS011;15074;50.940;5.282;2023-07-31T11:37:39;3.85;;;2.25;;
27666;SDS011;15074;50.940;5.282;2023-07-31T11:40:06;3.80;;;2.70;;
27666;SDS011;15074;50.940;5.282;2023-07-31T11:42:34;5.20;;;2.35;;
27666;SDS011;15074;50.940;5.282;2023-07-31T11:45:03;5.43;;;2.95;;
27666;SDS011;15074;50.940;5.282;2023-07-31T11:47:31;4.95;;;2.60;;
27666;SDS011;15074;50.940;5.282;2023-07-31T11:50:00;4.63;;;3.15;;
27666;SDS011;15074;50.940;5.282;2023-07-31T11:52:27;4.72;;;2.72;;
27666;SDS011;15074;50.940;5.282;2023-07-31T11:55:03;5.50;;;2.85;;
27666;SDS011;15074;50.940;5.282;2023-07-31T11:57:31;5.90;;;2.67;;
27666;SDS011;15074;50.940;5.282;2023-07-31T11:59:58;5.25;;;3.10;;
27666;SDS011;15074;50.940;5.282;2023-07-31T12:02:24;5.25;;;2.45;;
27666;SDS011;15074;50.940;5.282;2023-07-31T12:04:49;6.60;;;2.67;;
27666;SDS011;15074;50.940;5.282;2023-07-31T12:07:16;5.72;;;2.72;;
27666;SDS011;15074;50.940;5.282;2023-07-31T12:09:52;4.28;;;2.60;;
27666;SDS011;15074;50.940;5.282;2023-07-31T12:12:22;4.47;;;2.35;;
27666;SDS011;15074;50.940;5.282;2023-07-31T12:14:48;2.45;;;2.00;;
27666;SDS011;15074;50.940;5.282;2023-07-31T12:17:18;3.72;;;2.30;;
27666;SDS011;15074;50.940;5.282;2023-07-31T12:19:45;4.18;;;2.40;;
27666;SDS011;15074;50.940;5.282;2023-07-31T12:22:14;4.03;;;2.50;;
27666;SDS011;15074;50.940;5.282;2023-07-31T12:24:42;3.67;;;2.53;;
27666;SDS011;15074;50.940;5.282;2023-07-31T12:27:11;4.38;;;2.65;;
27666;SDS011;15074;50.940;5.282;2023-07-31T12:29:42;4.97;;;2.80;;
27666;SDS011;15074;50.940;5.282;2023-07-31T12:32:20;4.05;;;2.63;;
27666;SDS011;15074;50.940;5.282;2023-07-31T12:34:47;4.07;;;2.55;;
27666;SDS011;15074;50.940;5.282;2023-07-31T12:37:12;4.57;;;2.50;;
27666;SDS011;15074;50.940;5.282;2023-07-31T12:39:38;4.95;;;2.20;;
27666;SDS011;15074;50.940;5.282;2023-07-31T12:42:04;6.93;;;2.38;;
27666;SDS011;15074;50.940;5.282;2023-07-31T12:44:30;3.85;;;2.40;;
27666;SDS011;15074;50.940;5.282;2023-07-31T12:46:56;4.15;;;2.40;;
27666;SDS011;15074;50.940;5.282;2023-07-31T12:49:22;4.07;;;2.10;;
27666;SDS011;15074;50.940;5.282;2023-07-31T12:51:48;3.75;;;2.30;;
27666;SDS011;15074;50.940;5.282;2023-07-31T12:54:14;4.47;;;2.90;;
27666;SDS011;15074;50.940;5.282;2023-07-31T12:56:39;3.45;;;2.60;;
27666;SDS011;15074;50.940;5.282;2023-07-31T12:59:05;5.93;;;2.92;;
27666;SDS011;15074;50.940;5.282;2023-07-31T13:01:31;4.22;;;2.35;;
27666;SDS011;15074;50.940;5.282;2023-07-31T13:03:57;5.00;;;2.85;;
27666;SDS011;15074;50.940;5.282;2023-07-31T13:06:23;4.85;;;3.00;;
27666;SDS011;15074;50.940;5.282;2023-07-31T13:08:49;4.35;;;2.88;;
27666;SDS011;15074;50.940;5.282;2023-07-31T13:11:15;5.03;;;3.47;;
27666;SDS011;15074;50.940;5.282;2023-07-31T13:13:41;3.85;;;3.10;;
27666;SDS011;15074;50.940;5.282;2023-07-31T13:16:06;6.45;;;3.05;;
27666;SDS011;15074;50.940;5.282;2023-07-31T13:18:32;4.25;;;2.92;;
27666;SDS011;15074;50.940;5.282;2023-07-31T13:20:58;4.28;;;2.78;;
27666;SDS011;15074;50.940;5.282;2023-07-31T13:23:23;4.20;;;3.40;;
27666;SDS011;15074;50.940;5.282;2023-07-31T13:25:49;7.65;;;3.58;;
27666;SDS011;15074;50.940;5.282;2023-07-31T13:28:15;5.82;;;3.35;;
27666;SDS011;15074;50.940;5.282;2023-07-31T13:30:40;6.72;;;3.70;;
27666;SDS011;15074;50.940;5.282;2023-07-31T13:33:06;4.85;;;3.55;;
27666;SDS011;15074;50.940;5.282;2023-07-31T13:35:32;7.68;;;4.05;;
27666;SDS011;15074;50.940;5.282;2023-07-31T13:37:58;4.75;;;3.25;;
27666;SDS011;15074;50.940;5.282;2023-07-31T13:40:24;7.38;;;3.53;;
27666;SDS011;15074;50.940;5.282;2023-07-31T13:42:50;5.95;;;3.92;;
27666;SDS011;15074;50.940;5.282;2023-07-31T13:45:15;7.07;;;3.90;;
27666;SDS011;15074;50.940;5.282;2023-07-31T13:47:41;6.18;;;3.50;;
27666;SDS011;15074;50.940;5.282;2023-07-31T13:50:07;6.72;;;3.08;;
27666;SDS011;15074;50.940;5.282;2023-07-31T13:52:33;6.32;;;3.17;;
27666;SDS011;15074;50.940;5.282;2023-07-31T13:54:58;4.70;;;2.92;;
27666;SDS011;15074;50.940;5.282;2023-07-31T13:57:24;6.28;;;2.95;;
27666;SDS011;15074;50.940;5.282;2023-07-31T13:59:49;6.18;;;3.28;;
27666;SDS011;15074;50.940;5.282;2023-07-31T14:02:15;6.85;;;3.65;;
27666;SDS011;15074;50.940;5.282;2023-07-31T14:04:41;5.50;;;3.97;;
27666;SDS011;15074;50.940;5.282;2023-07-31T14:07:06;4.47;;;3.20;;
27666;SDS011;15074;50.940;5.282;2023-07-31T14:09:32;5.93;;;3.33;;
27666;SDS011;15074;50.940;5.282;2023-07-31T14:11:58;5.20;;;3.55;;
27666;SDS011;15074;50.940;5.282;2023-07-31T14:14:23;4.90;;;3.33;;
27666;SDS011;15074;50.940;5.282;2023-07-31T14:16:49;5.88;;;3.80;;
27666;SDS011;15074;50.940;5.282;2023-07-31T14:19:15;4.35;;;3.15;;
27666;SDS011;15074;50.940;5.282;2023-07-31T14:21:40;5.40;;;3.47;;
27666;SDS011;15074;50.940;5.282;2023-07-31T14:24:06;5.05;;;3.33;;
27666;SDS011;15074;50.940;5.282;2023-07-31T14:26:32;5.72;;;3.38;;
27666;SDS011;15074;50.940;5.282;2023-07-31T14:28:57;6.13;;;3.00;;
27666;SDS011;15074;50.940;5.282;2023-07-31T14:31:23;4.93;;;3.38;;
27666;SDS011;15074;50.940;5.282;2023-07-31T14:33:49;5.55;;;3.33;;
27666;SDS011;15074;50.940;5.282;2023-07-31T14:36:14;5.53;;;3.92;;
27666;SDS011;15074;50.940;5.282;2023-07-31T14:38:40;10.70;;;3.53;;
27666;SDS011;15074;50.940;5.282;2023-07-31T14:41:05;5.47;;;3.05;;
27666;SDS011;15074;50.940;5.282;2023-07-31T14:43:31;5.57;;;3.40;;
27666;SDS011;15074;50.940;5.282;2023-07-31T14:45:57;4.05;;;2.88;;
27666;SDS011;15074;50.940;5.282;2023-07-31T14:48:24;6.05;;;2.83;;
27666;SDS011;15074;50.940;5.282;2023-07-31T14:50:52;3.92;;;2.95;;
27666;SDS011;15074;50.940;5.282;2023-07-31T14:53:17;3.53;;;2.00;;
27666;SDS011;15074;50.940;5.282;2023-07-31T14:55:43;3.30;;;2.00;;
27666;SDS011;15074;50.940;5.282;2023-07-31T14:58:09;3.45;;;2.25;;
27666;SDS011;15074;50.940;5.282;2023-07-31T15:00:36;4.50;;;2.38;;
27666;SDS011;15074;50.940;5.282;2023-07-31T15:03:02;3.45;;;2.33;;
27666;SDS011;15074;50.940;5.282;2023-07-31T15:05:28;3.17;;;1.88;;
27666;SDS011;15074;50.940;5.282;2023-07-31T15:07:55;6.70;;;2.00;;
27666;SDS011;15074;50.940;5.282;2023-07-31T15:10:21;3.50;;;1.95;;
27666;SDS011;15074;50.940;5.282;2023-07-31T15:12:47;2.33;;;1.63;;
27666;SDS011;15074;50.940;5.282;2023-07-31T15:15:13;2.03;;;1.52;;